Warning: Javascript must be enabled to use all the features on this page!


Page Loading - Please Wait...

Click to hideNews Bulletins

Peak Streamflow for the Nation

USGS 09289500 LAKE FORK RIVER AB MOON LAKE, NR MOUNTAIN HOME, UT

Duchesne County, Utah
Hydrologic Unit Code 14060003
Latitude  40°36'24", Longitude 110°31'35" NAD27
Drainage area 77.9  square miles
Gage datum 8,180.00 feet above NGVD29
Output formats
Table
Graph
Tab-separated file
peakfq (watstore) format
Reselect output format
Water
Year
Date Gage
Height
(feet)
Stream-
flow
(cfs)
1933 1933-06-03   4031
1934 1934-04-24   2951
1943 1943-06-25 2.833,6 934
1944 1944-06-26 5.273 2,700
1945 1945-06-21 3.023 1,100
1946 1946-06-05 2.893 1,210
1947 1947-06-07 2.743 1,040
1948 1948-05-23 2.973 1,200
1949 1949-06-16 3.853 1,820
1950 1950-06-06 3.843 1,230
1951 1951-06-16 4.093 1,550
1952 1952-06-06 4.273 1,600
1953 1953-06-13 4.903 2,380
1954 1954-05-19 3.123 892
1955 1955-06-08 3.853 1,290
1964 1964-06-06 3.813 1,160
1965 1965-06-13 4.673 1,850
1966 1966-05-29 3.043 647
1967 1967-06-25 4.083 1,410
1968 1968-06-20 4.793 2,060
1969 1969-05-26 4.073 1,340
1970 1970-06-03 3.463 960
1971 1971-06-17 4.733 2,070
1972 1972-05-31 4.003 1,500
1973 1973-06-09 3.803 1,150
1974 1974-05-28 3.583 1,100
1975 1975-07-01 3.943 1,490
1976 1976-06-03 2.873 767
1977 1977-06-04 3.453 1,310
1978 1978-06-13 3.683 1,400
1979 1979-05-28 3.413 1,040
1980 1980-06-11 3.973 1,610
1981 1981-06-08 4.143 1,560
1982 1982-06-28 3.563 1,050
1983 1983-06-18 4.613 1,950
1984 1984-05-31 3.483 1,070
1985 1985-06-07 4.546 1,090
1986 1986-06-04 5.12 1,830
1987 1987-06-07 4.34 1,070
1988 1988-06-04 3.93 789
1989 1989-06-11 3.49 605
1990 1990-06-11 5.11 2,280
1991 1991-06-13 6.15 2,480
1992 1992-05-20 4.79 899
1993 1993-05-26 5.37 2,370
1994 1994-05-30 5.19 1,040
1995 1995-06-27 6.44 2,740
1996 1996-06-08 5.79 1,550
1997 1997-06-04 6.11 1,950
1998 1998-07-01 5.87 1,640
1999 1999-06-18 6.80 2,550
2000 2000-05-23 5.74 1,190
2001 2001-05-17 6.07 1,480
2002 2002-05-30 5.30 728
2003 2003-05-29 6.26 1,720
2004 2004-06-06 5.16 648
2005 2005-06-19 6.51 1,900
2006 2006-05-20 5.95 1,250
2007 2007-05-13 5.25 659
2008 2008-05-20 5.65 971
2009 2009-05-19 5.83 1,130
2010 2010-06-05 7.18 3,090
2011 2011-06-30 5.61 2,750
2012 2012-05-10 3.71 574
2013 2013-06-08 4.12 814
2014 2014-05-28 4.40 1,040
2015 2015-06-15 4.33 982
2016 2016-06-05 4.86 1,400
2017 2017-06-05 4.88 1,390
2018 2018-05-25 4.14 814
2019 2019-06-19 4.92 1,410
2020 2020-05-31 4.76 1,230
2021 2021-08-19 4.43 928
?
  Peak Gage-Height Qualification Codes.
?
  Peak Streamflow Qualification Codes.